Time;durP1;ratioP1;P1;durP2;ratioP2;P2;SDS_P1;SDS_P2;PMS_P1;PMS_P2;Temp;Humidity;BMP_temperature;BMP_pressure;BME280_temperature;BME280_humidity;BME280_pressure;Samples;Min_cycle;Max_cycle;Signal;HPM_P1;HPM_P2
2021/11/19 00:01:15;;;;;;;23.55;10.75;;;12.20;99.90;;;;;;5016589;28;20071;-84
2021/11/19 00:03:43;;;;;;;21.55;10.13;;;12.20;99.90;;;;;;5007417;28;20041;-85
2021/11/19 00:06:09;;;;;;;23.27;9.82;;;12.20;99.90;;;;;;5015765;28;20053;-85
2021/11/19 00:08:35;;;;;;;21.58;9.45;;;12.20;99.90;;;;;;5015679;28;20071;-85
2021/11/19 00:11:04;;;;;;;24.77;10.32;;;12.30;99.90;;;;;;5014758;28;20077;-85
2021/11/19 00:13:30;;;;;;;20.85;10.10;;;12.30;99.90;;;;;;5015760;28;20375;-85
2021/11/19 00:15:57;;;;;;;30.08;11.35;;;12.30;99.90;;;;;;5015217;28;20049;-84
2021/11/19 00:18:23;;;;;;;25.33;10.32;;;12.30;99.90;;;;;;5015032;28;20053;-85
2021/11/19 00:20:53;;;;;;;23.73;10.60;;;12.30;99.90;;;;;;5015768;28;20045;-85
2021/11/19 00:23:20;;;;;;;22.77;10.43;;;12.30;99.90;;;;;;5015332;28;20045;-84
2021/11/19 00:25:46;;;;;;;28.17;10.57;;;12.30;99.90;;;;;;5015672;28;20050;-85
2021/11/19 00:28:13;;;;;;;25.70;10.35;;;12.30;99.90;;;;;;5015753;28;20053;-84
2021/11/19 00:30:39;;;;;;;22.63;10.32;;;12.30;99.90;;;;;;5014848;28;20420;-85
2021/11/19 00:33:07;;;;;;;23.10;10.23;;;12.30;99.90;;;;;;5015374;28;20045;-84
2021/11/19 00:35:34;;;;;;;21.60;9.60;;;12.30;99.90;;;;;;5015044;28;20521;-85
2021/11/19 00:38:01;;;;;;;22.83;9.95;;;12.30;99.90;;;;;;5014845;28;20049;-84
2021/11/19 00:40:54;;;;;;;25.33;9.75;;;12.30;99.90;;;;;;5015511;28;20049;-85
2021/11/19 00:43:21;;;;;;;23.77;9.38;;;12.30;99.90;;;;;;5014891;28;20097;-84
2021/11/19 00:45:47;;;;;;;23.95;9.43;;;12.30;99.90;;;;;;5014758;28;20394;-85
2021/11/19 00:48:14;;;;;;;20.95;9.18;;;12.30;99.90;;;;;;5015433;28;20041;-85
2021/11/19 00:50:44;;;;;;;24.23;8.98;;;12.30;99.90;;;;;;5015432;28;20489;-85
2021/11/19 00:53:09;;;;;;;24.80;9.20;;;12.30;99.90;;;;;;5013718;28;20555;-85
2021/11/19 00:55:36;;;;;;;22.38;8.38;;;12.30;99.90;;;;;;5014748;28;20037;-85
2021/11/19 00:58:03;;;;;;;22.60;8.93;;;12.40;99.90;;;;;;5014663;28;20079;-85
2021/11/19 01:00:35;;;;;;;27.25;8.52;;;12.40;99.90;;;;;;5014096;28;20076;-85
2021/11/19 01:03:01;;;;;;;23.95;8.70;;;12.40;99.90;;;;;;5015202;28;20398;-85
2021/11/19 01:05:26;;;;;;;25.75;8.35;;;12.40;99.90;;;;;;5014734;28;20041;-85
2021/11/19 01:07:53;;;;;;;22.45;8.70;;;12.40;99.90;;;;;;5014538;28;20030;-85
2021/11/19 01:10:26;;;;;;;20.92;8.13;;;12.40;99.90;;;;;;5014710;28;20397;-85
2021/11/19 01:12:52;;;;;;;16.88;8.02;;;12.40;99.90;;;;;;5014561;28;20049;-85
2021/11/19 01:15:43;;;;;;;18.30;8.32;;;12.40;99.90;;;;;;5014501;28;20409;-85
2021/11/19 01:18:35;;;;;;;15.68;7.18;;;12.40;99.90;;;;;;5002386;28;20092;-85
2021/11/19 01:21:13;;;;;;;14.57;7.10;;;12.30;99.90;;;;;;5012077;28;20072;-85
2021/11/19 01:23:39;;;;;;;25.38;7.80;;;12.40;99.90;;;;;;5015666;28;20053;-85
2021/11/19 01:26:09;;;;;;;19.75;7.30;;;12.40;99.90;;;;;;5014855;28;20048;-86
2021/11/19 01:28:36;;;;;;;22.20;7.97;;;12.40;99.90;;;;;;5014796;28;20048;-84
2021/11/19 01:31:13;;;;;;;24.52;8.63;;;12.30;99.90;;;;;;5014161;28;20095;-85
2021/11/19 01:33:38;;;;;;;20.35;6.90;;;12.40;99.90;;;;;;5015146;28;20136;-85
2021/11/19 01:36:05;;;;;;;18.52;6.95;;;12.40;99.90;;;;;;5014022;28;20049;-85
2021/11/19 01:38:31;;;;;;;25.88;7.70;;;12.40;99.90;;;;;;5015257;28;20034;-86
2021/11/19 01:41:13;;;;;;;16.77;6.63;;;12.30;99.90;;;;;;5013762;28;20516;-85
2021/11/19 01:43:39;;;;;;;19.55;7.18;;;12.30;99.90;;;;;;5014255;28;20088;-85
2021/11/19 01:46:13;;;;;;;21.20;7.50;;;12.30;99.90;;;;;;5014531;28;20194;-85
2021/11/19 01:48:41;;;;;;;19.80;7.03;;;12.30;99.90;;;;;;5013715;28;20049;-85
2021/11/19 01:51:47;;;;;;;18.08;6.82;;;12.30;99.90;;;;;;5014547;28;20042;-86
2021/11/19 01:54:18;;;;;;;17.85;7.32;;;12.30;99.90;;;;;;4979487;28;20108;-85
2021/11/19 01:56:50;;;;;;;15.70;6.90;;;12.30;99.90;;;;;;5009373;28;20076;-85
2021/11/19 01:59:47;;;;;;;18.00;7.03;;;12.30;99.90;;;;;;5013873;28;20400;-86
2021/11/19 02:02:25;;;;;;;17.98;6.93;;;12.30;99.90;;;;;;5010656;28;20045;-85
2021/11/19 02:04:59;;;;;;;17.40;6.63;;;12.30;99.90;;;;;;5016150;28;20045;-85
2021/11/19 02:07:31;;;;;;;19.85;6.57;;;12.30;99.90;;;;;;5015356;28;20050;-85
2021/11/19 02:10:19;;;;;;;15.68;6.60;;;12.30;99.90;;;;;;5017333;28;20091;-85
2021/11/19 02:13:03;;;;;;;19.27;6.82;;;12.30;99.90;;;;;;5018008;28;20143;-85
2021/11/19 02:15:46;;;;;;;17.75;6.35;;;12.30;99.90;;;;;;5007063;28;20101;-85
2021/11/19 02:18:20;;;;;;;21.52;7.43;;;12.30;99.90;;;;;;4998180;28;20141;-85
2021/11/19 02:20:50;;;;;;;17.75;7.22;;;12.30;99.90;;;;;;5000939;28;20137;-85
2021/11/19 02:23:23;;;;;;;18.92;7.22;;;12.30;99.90;;;;;;5017507;28;20537;-85
2021/11/19 02:26:10;;;;;;;21.70;7.32;;;12.30;99.90;;;;;;5017639;28;20048;-86
2021/11/19 02:28:38;;;;;;;19.63;7.00;;;12.30;99.90;;;;;;5018232;28;20366;-85
2021/11/19 02:31:13;;;;;;;23.38;7.22;;;12.30;99.90;;;;;;5000531;28;20037;-85
2021/11/19 02:33:41;;;;;;;20.58;6.97;;;12.30;99.90;;;;;;5017642;28;20052;-85
2021/11/19 02:36:18;;;;;;;17.85;7.60;;;12.30;99.90;;;;;;5016844;28;20485;-85
2021/11/19 02:38:51;;;;;;;18.42;6.88;;;12.40;99.90;;;;;;5017192;28;20041;-86
2021/11/19 02:41:19;;;;;;;17.60;7.25;;;12.30;99.90;;;;;;5017775;28;20069;-85
2021/11/19 02:43:53;;;;;;;19.67;7.70;;;12.40;99.90;;;;;;5017347;28;20041;-85
2021/11/19 02:46:34;;;;;;;19.02;7.38;;;12.40;99.90;;;;;;5016237;28;20060;-85
2021/11/19 02:49:00;;;;;;;17.80;7.43;;;12.40;99.90;;;;;;5017723;28;20132;-85
2021/11/19 02:51:27;;;;;;;18.83;6.88;;;12.40;99.90;;;;;;5016351;28;20175;-85
2021/11/19 02:53:54;;;;;;;20.23;7.93;;;12.40;99.90;;;;;;5017271;28;20136;-85
2021/11/19 02:56:21;;;;;;;21.35;7.22;;;12.40;99.90;;;;;;5017136;28;20041;-85
2021/11/19 02:58:53;;;;;;;20.77;7.47;;;12.40;99.90;;;;;;5017150;28;20081;-85
2021/11/19 03:01:34;;;;;;;19.05;7.20;;;12.40;99.90;;;;;;5017537;28;20037;-85
2021/11/19 03:04:16;;;;;;;19.63;7.20;;;12.40;99.90;;;;;;5017239;28;20065;-85
2021/11/19 03:06:48;;;;;;;20.77;7.65;;;12.40;99.90;;;;;;5016210;28;20489;-85
2021/11/19 03:09:17;;;;;;;17.35;7.55;;;12.40;99.90;;;;;;5016968;28;20048;-85
2021/11/19 03:11:42;;;;;;;15.65;7.25;;;12.50;99.90;;;;;;5016474;28;20277;-85
2021/11/19 03:14:10;;;;;;;17.90;7.68;;;12.40;99.90;;;;;;5016396;28;20137;-85
2021/11/19 03:16:36;;;;;;;18.02;7.57;;;12.50;99.90;;;;;;5015662;28;20045;-86
2021/11/19 03:19:04;;;;;;;17.55;7.65;;;12.50;99.90;;;;;;5016698;28;20119;-85
2021/11/19 03:21:40;;;;;;;20.25;7.65;;;12.50;99.90;;;;;;5016715;28;20077;-86
2021/11/19 03:24:07;;;;;;;21.63;7.88;;;12.50;99.90;;;;;;4997495;28;20428;-85
2021/11/19 03:26:36;;;;;;;20.65;7.63;;;12.50;99.90;;;;;;5006429;28;20448;-86
2021/11/19 03:29:04;;;;;;;22.08;8.13;;;12.50;99.90;;;;;;5016147;28;20068;-85
2021/11/19 03:31:31;;;;;;;16.10;7.78;;;12.50;99.90;;;;;;5016512;28;20069;-86
2021/11/19 03:33:58;;;;;;;20.67;8.27;;;12.50;99.90;;;;;;5014899;28;20493;-85
2021/11/19 03:36:25;;;;;;;17.15;8.10;;;12.50;99.90;;;;;;5016201;28;20040;-85
2021/11/19 03:38:53;;;;;;;17.48;7.60;;;12.50;99.90;;;;;;5016080;28;20477;-85
2021/11/19 03:41:23;;;;;;;17.10;8.25;;;12.50;99.90;;;;;;5015083;28;20039;-86
2021/11/19 03:43:56;;;;;;;17.63;7.53;;;12.50;99.90;;;;;;5016322;28;20041;-86
2021/11/19 03:46:45;;;;;;;22.58;8.45;;;12.50;99.90;;;;;;5016263;28;20038;-86
2021/11/19 03:49:12;;;;;;;19.77;7.72;;;12.50;99.90;;;;;;5014542;28;20046;-86
2021/11/19 03:52:03;;;;;;;18.88;7.78;;;12.50;99.90;;;;;;5016211;28;20045;-86
2021/11/19 03:54:32;;;;;;;19.88;7.53;;;12.50;99.90;;;;;;4996672;28;20045;-86
2021/11/19 03:56:58;;;;;;;18.30;7.70;;;12.50;99.90;;;;;;5009635;28;20068;-86
2021/11/19 03:59:25;;;;;;;17.45;7.63;;;12.50;99.90;;;;;;5015979;28;20072;-85
2021/11/19 04:01:53;;;;;;;17.40;7.47;;;12.50;99.90;;;;;;5015537;28;20052;-85
2021/11/19 04:04:22;;;;;;;17.60;7.40;;;12.50;99.90;;;;;;5016362;28;20075;-85
2021/11/19 04:06:47;;;;;;;24.70;7.57;;;12.50;99.90;;;;;;5016033;28;20056;-85
2021/11/19 04:09:14;;;;;;;18.98;7.25;;;12.50;99.90;;;;;;5006184;28;20045;-86
2021/11/19 04:11:40;;;;;;;20.73;7.28;;;12.50;99.90;;;;;;5015670;28;20061;-86
2021/11/19 04:14:07;;;;;;;19.05;7.85;;;12.50;99.90;;;;;;5015720;28;20033;-86
2021/11/19 04:16:48;;;;;;;18.45;7.85;;;12.50;99.90;;;;;;5004123;28;20127;-85
2021/11/19 04:19:16;;;;;;;19.75;7.10;;;12.50;99.90;;;;;;5014955;28;20144;-85
2021/11/19 04:21:44;;;;;;;25.63;8.10;;;12.50;99.90;;;;;;5015641;28;20045;-86
2021/11/19 04:24:13;;;;;;;22.88;7.78;;;12.50;99.90;;;;;;5014621;28;20132;-86
2021/11/19 04:26:39;;;;;;;24.52;8.32;;;12.50;99.90;;;;;;5015708;28;20037;-86
2021/11/19 04:29:06;;;;;;;21.13;7.85;;;12.50;99.90;;;;;;5015229;28;20041;-86
2021/11/19 04:31:32;;;;;;;19.60;7.75;;;12.50;99.90;;;;;;5014397;28;20079;-86
2021/11/19 04:34:01;;;;;;;17.95;7.53;;;12.50;99.90;;;;;;5015523;28;20041;-86
2021/11/19 04:36:27;;;;;;;29.80;8.07;;;12.50;99.90;;;;;;5016075;28;20041;-85
2021/11/19 04:38:53;;;;;;;20.85;7.55;;;12.50;99.90;;;;;;5014905;28;20095;-86
2021/11/19 04:41:19;;;;;;;22.17;7.90;;;12.50;99.90;;;;;;5015223;28;20128;-86
2021/11/19 04:43:48;;;;;;;21.40;7.72;;;12.50;99.90;;;;;;5014632;28;20451;-85
2021/11/19 04:46:26;;;;;;;19.80;7.85;;;12.50;99.90;;;;;;5015570;28;20041;-86
2021/11/19 04:49:01;;;;;;;18.75;7.38;;;12.50;99.90;;;;;;5015764;28;20424;-86
2021/11/19 04:51:33;;;;;;;19.73;7.57;;;12.50;99.90;;;;;;5014174;28;20503;-87
2021/11/19 04:53:58;;;;;;;21.67;7.32;;;12.50;99.90;;;;;;5015186;28;20045;-85
2021/11/19 04:56:25;;;;;;;18.65;7.95;;;12.50;99.90;;;;;;5015018;28;20048;-86
2021/11/19 04:58:51;;;;;;;25.48;8.02;;;12.50;99.90;;;;;;5014448;28;20034;-85
2021/11/19 05:01:27;;;;;;;22.00;7.80;;;12.50;99.90;;;;;;5015436;28;20060;-86
2021/11/19 05:03:53;;;;;;;21.10;7.82;;;12.50;99.90;;;;;;5015285;28;20053;-86
2021/11/19 05:06:18;;;;;;;21.52;8.05;;;12.50;99.90;;;;;;5014488;28;20060;-86
2021/11/19 05:08:44;;;;;;;23.95;8.43;;;12.50;99.90;;;;;;5015291;28;20071;-85
2021/11/19 05:11:15;;;;;;;21.85;7.68;;;12.50;99.90;;;;;;5015018;28;20053;-87
2021/11/19 05:13:41;;;;;;;21.70;7.80;;;12.50;99.90;;;;;;5014287;28;20037;-86
2021/11/19 05:16:10;;;;;;;29.33;8.45;;;12.50;99.90;;;;;;5014529;28;20064;-85
2021/11/19 05:18:37;;;;;;;21.75;8.15;;;12.40;99.90;;;;;;5014678;28;20053;-86
2021/11/19 05:21:04;;;;;;;23.70;8.20;;;12.40;99.90;;;;;;5014315;28;20290;-85
2021/11/19 05:23:30;;;;;;;20.40;7.80;;;12.40;99.90;;;;;;5006324;28;20042;-85
2021/11/19 05:25:57;;;;;;;26.52;8.65;;;12.50;99.90;;;;;;5014161;28;20416;-86
2021/11/19 05:28:24;;;;;;;26.15;8.80;;;12.50;99.90;;;;;;5015453;28;20487;-86
2021/11/19 05:30:50;;;;;;;20.20;8.60;;;12.40;99.90;;;;;;5015190;28;20140;-86
2021/11/19 05:33:19;;;;;;;25.77;9.02;;;12.50;99.90;;;;;;5013899;28;20389;-86
2021/11/19 05:35:45;;;;;;;24.52;8.63;;;12.40;99.90;;;;;;5014605;28;20038;-85
2021/11/19 05:38:11;;;;;;;18.42;8.55;;;12.40;99.90;;;;;;4995703;28;20042;-86
2021/11/19 05:40:37;;;;;;;22.27;8.60;;;12.40;99.90;;;;;;5012669;28;20103;-85
2021/11/19 05:43:04;;;;;;;21.50;8.90;;;12.40;99.90;;;;;;5017484;28;20048;-85
2021/11/19 05:45:32;;;;;;;19.55;8.65;;;12.40;99.90;;;;;;5018178;28;20038;-86
2021/11/19 05:47:58;;;;;;;22.23;8.75;;;12.40;99.90;;;;;;5017900;28;20046;-85
2021/11/19 05:50:27;;;;;;;21.95;8.50;;;12.40;99.90;;;;;;5018151;28;20500;-86
2021/11/19 05:52:57;;;;;;;19.98;8.75;;;12.40;99.90;;;;;;5018134;28;20104;-85
2021/11/19 05:55:24;;;;;;;23.33;9.13;;;12.40;99.90;;;;;;5017957;28;20072;-86
2021/11/19 05:57:50;;;;;;;24.20;9.15;;;12.40;99.90;;;;;;5018260;28;20167;-86
2021/11/19 06:00:20;;;;;;;20.42;8.73;;;12.40;99.90;;;;;;5017664;28;20050;-85
2021/11/19 06:02:48;;;;;;;19.65;8.25;;;12.40;99.90;;;;;;5016896;28;20034;-86
2021/11/19 06:05:14;;;;;;;22.08;9.07;;;12.40;99.90;;;;;;5007965;28;20131;-85
2021/11/19 06:07:40;;;;;;;21.85;8.85;;;12.40;99.90;;;;;;5011918;28;20095;-85
2021/11/19 06:10:08;;;;;;;21.38;8.82;;;12.40;99.90;;;;;;5024492;28;20049;-85
2021/11/19 06:12:42;;;;;;;23.77;8.73;;;12.40;99.90;;;;;;5032709;28;20056;-85
2021/11/19 06:15:30;;;;;;;19.05;8.18;;;12.40;99.90;;;;;;5010868;28;20435;-86
2021/11/19 06:18:02;;;;;;;20.65;9.32;;;12.40;99.90;;;;;;5025978;28;20128;-86
2021/11/19 06:20:50;;;;;;;22.75;9.23;;;12.30;99.90;;;;;;5031198;28;20260;-86
2021/11/19 06:23:22;;;;;;;26.70;8.95;;;12.40;99.90;;;;;;5009689;28;20119;-86
2021/11/19 06:25:48;;;;;;;25.38;10.13;;;12.40;99.90;;;;;;5033297;28;20623;-85
2021/11/19 06:28:30;;;;;;;24.98;9.73;;;12.40;99.90;;;;;;5020381;28;20045;-84
2021/11/19 06:30:55;;;;;;;26.02;9.15;;;12.30;99.90;;;;;;5027784;28;20048;-84
2021/11/19 06:33:22;;;;;;;20.27;8.95;;;12.30;99.90;;;;;;5015948;28;20417;-84
2021/11/19 06:35:48;;;;;;;22.63;8.52;;;12.30;99.90;;;;;;5032972;28;20080;-85
2021/11/19 06:38:15;;;;;;;23.90;8.82;;;12.30;99.90;;;;;;5019156;28;20040;-85
2021/11/19 06:40:42;;;;;;;21.48;8.75;;;12.30;99.90;;;;;;5021656;28;20041;-85
2021/11/19 06:43:07;;;;;;;24.77;9.15;;;12.30;99.90;;;;;;5020822;28;20038;-87
2021/11/19 06:45:35;;;;;;;26.02;9.38;;;12.30;99.90;;;;;;5030466;28;20059;-90
2021/11/19 06:48:23;;;;;;;24.08;9.20;;;12.30;99.90;;;;;;5032544;28;20048;-91
2021/11/19 06:50:55;;;;;;;23.33;8.90;;;12.30;99.90;;;;;;5015645;28;20413;-83
2021/11/19 06:53:26;;;;;;;24.35;8.55;;;12.30;99.90;;;;;;5015017;28;20485;-86
2021/11/19 06:55:54;;;;;;;20.73;8.23;;;12.30;99.90;;;;;;5020109;28;20049;-87
2021/11/19 06:58:25;;;;;;;24.58;9.05;;;12.30;99.90;;;;;;5009160;28;20167;-86
2021/11/19 07:00:55;;;;;;;18.90;8.20;;;12.30;99.90;;;;;;5019375;28;20128;-84
2021/11/19 07:03:28;;;;;;;25.15;8.30;;;12.30;99.90;;;;;;5022299;28;20042;-84
2021/11/19 07:06:00;;;;;;;21.38;8.38;;;12.30;99.90;;;;;;5032348;28;20049;-85
2021/11/19 07:08:26;;;;;;;20.27;8.02;;;12.30;99.90;;;;;;5011026;28;20124;-85
2021/11/19 07:10:56;;;;;;;22.60;8.02;;;12.30;99.90;;;;;;5018872;28;20125;-84
2021/11/19 07:13:23;;;;;;;25.17;8.00;;;12.30;99.90;;;;;;4993492;28;20042;-84
2021/11/19 07:15:49;;;;;;;21.63;8.48;;;12.30;99.90;;;;;;5009915;28;20176;-84
2021/11/19 07:18:14;;;;;;;20.75;7.47;;;12.30;99.90;;;;;;4994078;28;20112;-82
2021/11/19 07:20:41;;;;;;;19.90;8.20;;;12.30;99.90;;;;;;4996526;28;20056;-83
2021/11/19 07:23:09;;;;;;;25.13;8.10;;;12.30;99.90;;;;;;5001915;28;20042;-84
2021/11/19 07:25:36;;;;;;;20.58;7.20;;;12.30;99.90;;;;;;4996340;28;20177;-83
2021/11/19 07:28:02;;;;;;;20.30;7.93;;;12.30;99.90;;;;;;4993521;28;20046;-85
2021/11/19 07:30:35;;;;;;;19.30;7.38;;;12.30;99.90;;;;;;4992859;28;20038;-84
2021/11/19 07:33:01;;;;;;;20.10;7.63;;;12.30;99.90;;;;;;4987762;28;20047;-83
2021/11/19 07:35:28;;;;;;;19.98;6.70;;;12.30;99.90;;;;;;4992658;28;20120;-84
2021/11/19 07:37:54;;;;;;;21.50;7.55;;;12.30;99.90;;;;;;4994565;28;20038;-84
2021/11/19 07:40:26;;;;;;;21.05;7.82;;;12.30;99.90;;;;;;4994334;28;20133;-84
2021/11/19 07:42:51;;;;;;;19.33;7.28;;;12.30;99.90;;;;;;4999191;28;20115;-84
2021/11/19 07:45:27;;;;;;;21.38;7.30;;;12.30;99.90;;;;;;5002741;28;20078;-82
2021/11/19 07:47:54;;;;;;;22.60;6.95;;;12.30;99.90;;;;;;5000750;28;20050;-83
2021/11/19 07:50:24;;;;;;;24.80;6.95;;;12.30;99.90;;;;;;4999546;28;20064;-83
2021/11/19 07:52:50;;;;;;;19.85;6.70;;;12.30;99.90;;;;;;4989025;28;20046;-83
2021/11/19 07:55:16;;;;;;;20.08;6.40;;;12.20;99.90;;;;;;4992909;28;20051;-83
2021/11/19 07:57:43;;;;;;;17.73;6.75;;;12.30;99.90;;;;;;5007636;28;20401;-83
2021/11/19 08:00:15;;;;;;;20.98;6.25;;;12.30;99.90;;;;;;4994963;28;20089;-82
2021/11/19 08:02:41;;;;;;;19.13;6.70;;;12.30;99.90;;;;;;5002280;28;20487;-82
2021/11/19 08:05:07;;;;;;;19.73;6.18;;;12.30;99.90;;;;;;4996394;28;20044;-83
2021/11/19 08:07:34;;;;;;;19.13;6.25;;;12.30;99.90;;;;;;4990455;28;20046;-83
2021/11/19 08:10:01;;;;;;;22.10;5.72;;;12.30;99.90;;;;;;4997846;28;20061;-83
2021/11/19 08:12:27;;;;;;;20.02;5.90;;;12.30;99.90;;;;;;4986046;28;20805;-83
2021/11/19 08:14:52;;;;;;;24.20;6.18;;;12.30;99.90;;;;;;4992104;28;20086;-83
2021/11/19 08:17:32;;;;;;;19.98;5.80;;;12.30;99.90;;;;;;5002971;28;20437;-83
2021/11/19 08:20:09;;;;;;;19.15;4.97;;;12.30;99.90;;;;;;4990133;28;20509;-84
2021/11/19 08:22:35;;;;;;;16.27;5.03;;;12.30;99.90;;;;;;5005309;28;20045;-84
2021/11/19 08:25:02;;;;;;;18.10;5.80;;;12.30;99.90;;;;;;5001872;28;20490;-84
2021/11/19 08:27:41;;;;;;;23.75;5.65;;;12.30;99.90;;;;;;5005703;28;20551;-83
2021/11/19 08:30:35;;;;;;;21.10;5.68;;;12.30;99.90;;;;;;4994453;28;20121;-84
2021/11/19 08:33:06;;;;;;;20.38;5.45;;;12.30;99.90;;;;;;5002893;28;20109;-84
2021/11/19 08:35:34;;;;;;;23.95;5.63;;;12.30;99.90;;;;;;4992089;28;20093;-84
2021/11/19 08:38:10;;;;;;;18.77;5.10;;;12.30;99.90;;;;;;5004928;28;20125;-84
2021/11/19 08:40:43;;;;;;;13.93;5.00;;;12.30;99.90;;;;;;5017344;28;20112;-84
2021/11/19 08:43:09;;;;;;;17.77;5.05;;;12.30;99.90;;;;;;4992479;28;20042;-84
2021/11/19 08:45:35;;;;;;;21.25;5.18;;;12.30;99.90;;;;;;4998395;28;20054;-85
2021/11/19 08:48:01;;;;;;;19.75;4.93;;;12.40;99.90;;;;;;5007068;28;20054;-85
2021/11/19 08:50:30;;;;;;;14.90;4.78;;;12.30;99.90;;;;;;4987039;28;20129;-85
2021/11/19 08:52:58;;;;;;;17.27;4.63;;;12.40;99.90;;;;;;4996602;28;20394;-84
2021/11/19 08:55:24;;;;;;;15.50;4.40;;;12.40;99.90;;;;;;5023106;28;20050;-85
2021/11/19 08:57:50;;;;;;;20.58;4.70;;;12.40;99.90;;;;;;4992409;28;20045;-84
2021/11/19 09:00:26;;;;;;;14.68;4.53;;;12.40;99.90;;;;;;4999794;28;20034;-85
2021/11/19 09:02:53;;;;;;;15.95;4.65;;;12.40;99.90;;;;;;5007868;28;20095;-84
2021/11/19 09:05:22;;;;;;;11.05;4.18;;;12.40;99.90;;;;;;5007484;28;20513;-85
2021/11/19 09:08:04;;;;;;;20.10;4.45;;;12.40;99.90;;;;;;4996629;28;20406;-85
2021/11/19 09:10:31;;;;;;;17.83;5.00;;;12.40;99.90;;;;;;4989688;28;20115;-85
2021/11/19 09:13:00;;;;;;;17.77;4.40;;;12.40;99.90;;;;;;5034483;28;20057;-85
2021/11/19 09:15:32;;;;;;;20.33;4.40;;;12.50;99.90;;;;;;5019945;28;20091;-85
2021/11/19 09:18:10;;;;;;;13.48;4.65;;;12.50;99.90;;;;;;5018725;28;20049;-85
2021/11/19 09:21:13;;;;;;;18.23;4.25;;;12.50;99.90;;;;;;5026012;28;20439;-85
2021/11/19 09:23:44;;;;;;;15.18;4.10;;;12.50;99.90;;;;;;5024805;28;20050;-85
2021/11/19 09:26:13;;;;;;;20.58;4.40;;;12.50;99.90;;;;;;5022313;28;20071;-85
2021/11/19 09:28:44;;;;;;;17.38;4.43;;;12.50;99.90;;;;;;5025989;28;20444;-85
2021/11/19 09:31:13;;;;;;;16.77;3.85;;;12.60;99.90;;;;;;5028424;28;20548;-85
2021/11/19 09:33:39;;;;;;;17.25;3.80;;;12.60;99.90;;;;;;5032069;28;20047;-86
2021/11/19 09:36:05;;;;;;;18.02;4.50;;;12.60;99.90;;;;;;5021574;28;20052;-85
2021/11/19 09:38:31;;;;;;;16.55;4.13;;;12.60;99.90;;;;;;5033330;28;20473;-84
2021/11/19 09:41:06;;;;;;;13.63;3.97;;;12.60;99.80;;;;;;5029541;28;20123;-85
2021/11/19 09:43:48;;;;;;;18.75;3.92;;;12.70;99.90;;;;;;5031408;28;20124;-84
2021/11/19 09:46:56;;;;;;;17.48;3.70;;;12.70;99.80;;;;;;5020021;28;20055;-85
2021/11/19 09:50:05;;;;;;;14.13;3.78;;;12.70;99.70;;;;;;5034138;28;20060;-85
2021/11/19 09:52:56;;;;;;;11.98;3.28;;;12.70;99.60;;;;;;5016400;28;20415;-85
2021/11/19 09:55:40;;;;;;;15.90;3.10;;;12.70;99.60;;;;;;5014122;28;20041;-85
2021/11/19 09:58:24;;;;;;;14.13;3.20;;;12.70;99.80;;;;;;5015810;28;20057;-86
2021/11/19 10:01:11;;;;;;;16.50;3.38;;;12.80;99.70;;;;;;5027590;28;20416;-85
2021/11/19 10:03:58;;;;;;;19.67;3.28;;;12.80;99.60;;;;;;5018008;28;20053;-84
2021/11/19 10:06:33;;;;;;;19.17;3.08;;;12.70;99.60;;;;;;5016315;28;20045;-85
2021/11/19 10:09:09;;;;;;;16.80;3.03;;;12.70;99.60;;;;;;5026884;28;20076;-84
2021/11/19 10:11:51;;;;;;;15.32;3.15;;;12.80;99.60;;;;;;5013746;28;20057;-84
2021/11/19 10:14:51;;;;;;;19.42;3.22;;;12.80;99.60;;;;;;5019305;28;20041;-85
2021/11/19 10:17:33;;;;;;;15.45;3.55;;;12.80;99.50;;;;;;5027937;28;20552;-84
2021/11/19 10:20:03;;;;;;;19.25;4.75;;;12.80;99.60;;;;;;5016920;28;20041;-85
2021/11/19 10:22:36;;;;;;;15.43;3.85;;;12.80;99.60;;;;;;5026099;28;20052;-84
2021/11/19 10:25:21;;;;;;;15.52;3.30;;;12.80;99.50;;;;;;5017172;28;20148;-85
2021/11/19 10:27:54;;;;;;;17.73;3.38;;;12.80;99.50;;;;;;5017456;28;20077;-84
2021/11/19 10:30:40;;;;;;;13.20;3.30;;;12.80;99.40;;;;;;5013839;28;20033;-83
2021/11/19 10:33:41;;;;;;;17.05;3.28;;;12.80;99.30;;;;;;5024429;28;20816;-85
2021/11/19 10:36:24;;;;;;;12.13;3.20;;;12.90;99.20;;;;;;5019513;28;20052;-86
2021/11/19 10:39:20;;;;;;;16.05;3.00;;;12.90;99.40;;;;;;5013370;28;20130;-86
2021/11/19 10:42:27;;;;;;;15.50;3.10;;;12.90;99.30;;;;;;5013184;28;20095;-85
2021/11/19 10:45:37;;;;;;;20.63;3.60;;;12.90;99.20;;;;;;5013015;28;20048;-84
2021/11/19 10:48:19;;;;;;;18.15;5.60;;;12.90;99.20;;;;;;4973257;28;20053;-84
2021/11/19 10:51:23;;;;;;;18.13;3.70;;;12.90;99.30;;;;;;5010234;28;20187;-84
2021/11/19 10:54:00;;;;;;;16.40;2.83;;;13.00;99.20;;;;;;5011944;28;20053;-83
2021/11/19 10:56:37;;;;;;;15.55;3.05;;;13.00;99.20;;;;;;5012801;28;20088;-84
2021/11/19 10:59:26;;;;;;;17.98;3.30;;;13.00;99.20;;;;;;5018649;28;20460;-87
2021/11/19 11:02:10;;;;;;;13.32;3.30;;;13.00;99.00;;;;;;5016354;28;20048;-87
2021/11/19 11:07:34;;;;;;;18.77;3.30;;;13.00;99.10;;;;;;5013430;28;20045;-85
2021/11/19 11:10:16;;;;;;;15.00;3.05;;;13.00;99.00;;;;;;5022895;28;20053;-84
2021/11/19 11:12:45;;;;;;;16.70;2.60;;;13.10;99.00;;;;;;5022826;28;20497;-85
2021/11/19 11:15:14;;;;;;;15.13;2.55;;;13.10;99.10;;;;;;5025843;28;20427;-85
2021/11/19 11:18:09;;;;;;;9.98;2.38;;;13.10;99.00;;;;;;5013437;28;20394;-84
2021/11/19 11:20:40;;;;;;;13.35;2.30;;;13.10;98.90;;;;;;5012503;28;20053;-85
2021/11/19 11:23:27;;;;;;;21.27;2.47;;;13.10;99.00;;;;;;5023554;28;20132;-85
2021/11/19 11:26:15;;;;;;;14.07;2.55;;;13.10;98.80;;;;;;5024784;28;20103;-85
2021/11/19 11:29:19;;;;;;;12.60;2.50;;;13.10;98.80;;;;;;4996116;28;20053;-84
2021/11/19 11:32:10;;;;;;;14.73;2.65;;;13.10;98.80;;;;;;5016821;28;20068;-84
2021/11/19 11:35:02;;;;;;;13.00;2.40;;;13.10;98.70;;;;;;5015685;28;20076;-84
2021/11/19 11:37:56;;;;;;;17.70;5.50;;;13.10;98.70;;;;;;5017384;28;20578;-85
2021/11/19 11:41:01;;;;;;;19.38;4.28;;;13.10;98.70;;;;;;5016369;28;20128;-84
2021/11/19 11:43:32;;;;;;;27.60;10.07;;;13.10;98.60;;;;;;5026113;28;20098;-85
2021/11/19 11:46:13;;;;;;;72.75;34.70;;;13.10;98.70;;;;;;5018015;28;20859;-84
2021/11/19 11:49:15;;;;;;;43.38;18.00;;;13.10;98.70;;;;;;5019281;28;20053;-84
2021/11/19 11:52:18;;;;;;;11.75;3.58;;;13.10;98.50;;;;;;5014876;28;20049;-84
2021/11/19 11:55:12;;;;;;;15.80;3.30;;;13.20;98.60;;;;;;5003394;28;20402;-84
2021/11/19 11:57:43;;;;;;;13.93;2.95;;;13.20;98.60;;;;;;4999916;28;20057;-85
2021/11/19 12:01:10;;;;;;;15.43;2.83;;;13.20;98.60;;;;;;4994858;28;20055;-84
2021/11/19 12:04:03;;;;;;;15.38;2.75;;;13.20;98.50;;;;;;5021522;28;20045;-83
2021/11/19 12:06:41;;;;;;;15.50;3.70;;;13.20;98.50;;;;;;5022521;28;20047;-84
2021/11/19 12:09:21;;;;;;;14.75;2.90;;;13.20;98.50;;;;;;5020539;28;20133;-83
2021/11/19 12:12:06;;;;;;;15.60;2.50;;;13.20;98.50;;;;;;5019598;28;20065;-82
2021/11/19 12:15:08;;;;;;;18.40;3.50;;;13.30;98.50;;;;;;5013114;28;20049;-83
2021/11/19 12:18:20;;;;;;;18.20;3.17;;;13.30;98.40;;;;;;5019863;28;20041;-82
2021/11/19 12:21:13;;;;;;;12.52;2.83;;;13.30;98.40;;;;;;5010356;28;20033;-84
2021/11/19 12:24:04;;;;;;;15.50;3.05;;;13.30;98.30;;;;;;5024705;28;20111;-83
2021/11/19 12:27:03;;;;;;;16.63;3.25;;;13.30;98.30;;;;;;5017896;28;20044;-83
2021/11/19 12:29:53;;;;;;;17.15;4.45;;;13.30;98.20;;;;;;5015695;28;20703;-81
2021/11/19 12:32:51;;;;;;;18.73;5.10;;;13.30;98.20;;;;;;5009234;28;20400;-83
2021/11/19 12:35:16;;;;;;;18.20;3.78;;;13.30;98.10;;;;;;5017448;28;20045;-82
2021/11/19 12:37:57;;;;;;;15.02;2.97;;;13.30;98.20;;;;;;5037707;28;20060;-83
2021/11/19 12:40:51;;;;;;;19.65;3.63;;;13.30;98.10;;;;;;5003605;28;20040;-83
2021/11/19 12:43:34;;;;;;;17.27;2.80;;;13.30;98.00;;;;;;5012241;28;20041;-82
2021/11/19 12:46:36;;;;;;;13.10;2.58;;;13.30;98.10;;;;;;5013125;28;20059;-83
2021/11/19 12:49:45;;;;;;;15.48;3.42;;;13.30;97.80;;;;;;5013001;28;20056;-83
2021/11/19 12:52:35;;;;;;;16.77;2.30;;;13.20;97.90;;;;;;5015309;28;20090;-83
2021/11/19 12:55:30;;;;;;;13.77;2.28;;;13.20;97.70;;;;;;5013600;28;20503;-82
2021/11/19 12:58:09;;;;;;;14.77;2.40;;;13.20;97.70;;;;;;4973954;28;20099;-83
2021/11/19 13:00:35;;;;;;;13.02;2.58;;;13.20;97.90;;;;;;5021543;28;20391;-83
2021/11/19 13:03:29;;;;;;;13.43;2.28;;;13.20;98.00;;;;;;5013248;28;20099;-83
2021/11/19 13:06:24;;;;;;;12.20;2.22;;;13.30;97.80;;;;;;5025986;28;20076;-83
2021/11/19 13:08:58;;;;;;;13.77;2.35;;;13.30;97.80;;;;;;5014034;28;20045;-83
2021/11/19 13:11:32;;;;;;;13.95;2.30;;;13.30;97.90;;;;;;5016771;28;21260;-83
2021/11/19 13:14:16;;;;;;;14.52;2.13;;;13.30;97.80;;;;;;5014998;28;20053;-83
2021/11/19 13:16:44;;;;;;;16.45;2.72;;;13.40;97.60;;;;;;5020643;28;20045;-83